sensor_id;sensor_type;location;lat;lon;timestamp;P1;durP1;ratioP1;P2;durP2;ratioP2
57107;SDS011;42987;52.916;6.542;2023-11-19T00:00:49;109.47;;;46.55;;
57107;SDS011;42987;52.916;6.542;2023-11-19T00:03:17;97.00;;;46.10;;
57107;SDS011;42987;52.916;6.542;2023-11-19T00:05:43;180.18;;;56.13;;
57107;SDS011;42987;52.916;6.542;2023-11-19T00:08:09;120.13;;;51.50;;
57107;SDS011;42987;52.916;6.542;2023-11-19T00:10:35;119.68;;;50.15;;
57107;SDS011;42987;52.916;6.542;2023-11-19T00:13:04;135.90;;;52.05;;
57107;SDS011;42987;52.916;6.542;2023-11-19T00:15:30;113.97;;;49.28;;
57107;SDS011;42987;52.916;6.542;2023-11-19T00:17:56;99.10;;;46.50;;
57107;SDS011;42987;52.916;6.542;2023-11-19T00:20:21;107.65;;;44.55;;
57107;SDS011;42987;52.916;6.542;2023-11-19T00:22:50;99.75;;;45.22;;
57107;SDS011;42987;52.916;6.542;2023-11-19T00:25:20;73.55;;;41.22;;
57107;SDS011;42987;52.916;6.542;2023-11-19T00:27:49;88.57;;;43.00;;
57107;SDS011;42987;52.916;6.542;2023-11-19T00:30:16;77.65;;;39.53;;
57107;SDS011;42987;52.916;6.542;2023-11-19T00:32:42;75.30;;;37.92;;
57107;SDS011;42987;52.916;6.542;2023-11-19T00:35:09;72.68;;;39.05;;
57107;SDS011;42987;52.916;6.542;2023-11-19T00:37:41;66.20;;;36.03;;
57107;SDS011;42987;52.916;6.542;2023-11-19T00:40:08;69.05;;;35.45;;
57107;SDS011;42987;52.916;6.542;2023-11-19T00:42:35;77.28;;;33.88;;
57107;SDS011;42987;52.916;6.542;2023-11-19T00:45:01;63.63;;;31.50;;
57107;SDS011;42987;52.916;6.542;2023-11-19T00:47:27;57.20;;;30.20;;
57107;SDS011;42987;52.916;6.542;2023-11-19T00:49:53;59.55;;;27.73;;
57107;SDS011;42987;52.916;6.542;2023-11-19T00:52:19;83.10;;;30.65;;
57107;SDS011;42987;52.916;6.542;2023-11-19T00:54:45;68.03;;;28.75;;
57107;SDS011;42987;52.916;6.542;2023-11-19T00:57:11;61.95;;;23.15;;
57107;SDS011;42987;52.916;6.542;2023-11-19T00:59:36;59.03;;;22.98;;
57107;SDS011;42987;52.916;6.542;2023-11-19T01:02:03;54.47;;;20.85;;
57107;SDS011;42987;52.916;6.542;2023-11-19T01:04:34;63.35;;;20.10;;
57107;SDS011;42987;52.916;6.542;2023-11-19T01:07:01;42.15;;;17.08;;
57107;SDS011;42987;52.916;6.542;2023-11-19T01:09:31;40.50;;;17.58;;
57107;SDS011;42987;52.916;6.542;2023-11-19T01:11:58;55.97;;;16.92;;
57107;SDS011;42987;52.916;6.542;2023-11-19T01:14:25;45.70;;;15.60;;
57107;SDS011;42987;52.916;6.542;2023-11-19T01:16:51;56.92;;;16.88;;
57107;SDS011;42987;52.916;6.542;2023-11-19T01:19:19;42.60;;;13.38;;
57107;SDS011;42987;52.916;6.542;2023-11-19T01:21:50;42.15;;;13.18;;
57107;SDS011;42987;52.916;6.542;2023-11-19T01:24:16;71.70;;;16.63;;
57107;SDS011;42987;52.916;6.542;2023-11-19T01:26:43;41.20;;;12.55;;
57107;SDS011;42987;52.916;6.542;2023-11-19T01:29:13;42.47;;;12.05;;
57107;SDS011;42987;52.916;6.542;2023-11-19T01:31:40;51.90;;;13.63;;
57107;SDS011;42987;52.916;6.542;2023-11-19T01:34:06;45.35;;;12.23;;
57107;SDS011;42987;52.916;6.542;2023-11-19T01:36:32;51.15;;;11.77;;
57107;SDS011;42987;52.916;6.542;2023-11-19T01:38:58;46.85;;;12.13;;
57107;SDS011;42987;52.916;6.542;2023-11-19T01:41:23;62.97;;;12.52;;
57107;SDS011;42987;52.916;6.542;2023-11-19T01:43:50;54.40;;;12.13;;
57107;SDS011;42987;52.916;6.542;2023-11-19T01:46:16;43.92;;;11.07;;
57107;SDS011;42987;52.916;6.542;2023-11-19T01:48:42;48.88;;;11.50;;
57107;SDS011;42987;52.916;6.542;2023-11-19T01:51:10;43.08;;;10.57;;
57107;SDS011;42987;52.916;6.542;2023-11-19T01:53:41;53.88;;;11.45;;
57107;SDS011;42987;52.916;6.542;2023-11-19T01:56:08;48.67;;;11.13;;
57107;SDS011;42987;52.916;6.542;2023-11-19T01:58:36;43.28;;;10.30;;
57107;SDS011;42987;52.916;6.542;2023-11-19T02:01:04;49.95;;;10.43;;
57107;SDS011;42987;52.916;6.542;2023-11-19T02:03:32;49.33;;;10.65;;
57107;SDS011;42987;52.916;6.542;2023-11-19T02:05:58;45.67;;;10.02;;
57107;SDS011;42987;52.916;6.542;2023-11-19T02:08:24;47.75;;;10.43;;
57107;SDS011;42987;52.916;6.542;2023-11-19T02:10:51;53.40;;;11.18;;
57107;SDS011;42987;52.916;6.542;2023-11-19T02:13:20;53.05;;;12.05;;
57107;SDS011;42987;52.916;6.542;2023-11-19T02:15:49;49.10;;;11.13;;
57107;SDS011;42987;52.916;6.542;2023-11-19T02:18:25;51.85;;;11.23;;
57107;SDS011;42987;52.916;6.542;2023-11-19T02:20:58;55.55;;;11.30;;
57107;SDS011;42987;52.916;6.542;2023-11-19T02:23:28;48.92;;;10.00;;
57107;SDS011;42987;52.916;6.542;2023-11-19T02:25:59;52.83;;;11.95;;
57107;SDS011;42987;52.916;6.542;2023-11-19T02:28:42;48.05;;;11.07;;
57107;SDS011;42987;52.916;6.542;2023-11-19T02:31:09;52.92;;;12.02;;
57107;SDS011;42987;52.916;6.542;2023-11-19T02:33:38;48.35;;;10.73;;
57107;SDS011;42987;52.916;6.542;2023-11-19T02:36:04;48.03;;;9.75;;
57107;SDS011;42987;52.916;6.542;2023-11-19T02:38:32;56.10;;;11.75;;
57107;SDS011;42987;52.916;6.542;2023-11-19T02:40:59;50.83;;;10.30;;
57107;SDS011;42987;52.916;6.542;2023-11-19T02:45:59;51.90;;;10.20;;
57107;SDS011;42987;52.916;6.542;2023-11-19T02:48:26;40.42;;;9.35;;
57107;SDS011;42987;52.916;6.542;2023-11-19T02:50:52;48.65;;;9.75;;
57107;SDS011;42987;52.916;6.542;2023-11-19T02:53:17;43.70;;;9.23;;
57107;SDS011;42987;52.916;6.542;2023-11-19T02:55:47;41.65;;;9.18;;
57107;SDS011;42987;52.916;6.542;2023-11-19T02:58:15;45.20;;;9.77;;
57107;SDS011;42987;52.916;6.542;2023-11-19T03:00:45;46.88;;;9.38;;
57107;SDS011;42987;52.916;6.542;2023-11-19T03:03:19;42.10;;;9.68;;
57107;SDS011;42987;52.916;6.542;2023-11-19T03:05:47;48.35;;;9.45;;
57107;SDS011;42987;52.916;6.542;2023-11-19T03:08:16;43.15;;;9.32;;
57107;SDS011;42987;52.916;6.542;2023-11-19T03:10:43;45.95;;;9.13;;
57107;SDS011;42987;52.916;6.542;2023-11-19T03:13:12;38.78;;;9.48;;
57107;SDS011;42987;52.916;6.542;2023-11-19T03:15:44;47.72;;;10.60;;
57107;SDS011;42987;52.916;6.542;2023-11-19T03:18:11;42.78;;;9.00;;
57107;SDS011;42987;52.916;6.542;2023-11-19T03:20:36;49.22;;;9.80;;
57107;SDS011;42987;52.916;6.542;2023-11-19T03:23:02;47.97;;;9.57;;
57107;SDS011;42987;52.916;6.542;2023-11-19T03:25:28;44.72;;;8.90;;
57107;SDS011;42987;52.916;6.542;2023-11-19T03:28:01;46.40;;;9.77;;
57107;SDS011;42987;52.916;6.542;2023-11-19T03:30:31;45.70;;;9.07;;
57107;SDS011;42987;52.916;6.542;2023-11-19T03:32:57;50.97;;;10.02;;
57107;SDS011;42987;52.916;6.542;2023-11-19T03:35:24;45.25;;;9.00;;
57107;SDS011;42987;52.916;6.542;2023-11-19T03:37:50;51.78;;;9.40;;
57107;SDS011;42987;52.916;6.542;2023-11-19T03:40:20;50.38;;;9.77;;
57107;SDS011;42987;52.916;6.542;2023-11-19T03:42:48;48.72;;;10.60;;
57107;SDS011;42987;52.916;6.542;2023-11-19T03:45:14;46.90;;;10.18;;
57107;SDS011;42987;52.916;6.542;2023-11-19T03:47:41;39.78;;;8.95;;
57107;SDS011;42987;52.916;6.542;2023-11-19T03:50:06;55.97;;;11.05;;
57107;SDS011;42987;52.916;6.542;2023-11-19T03:52:33;48.22;;;9.52;;
57107;SDS011;42987;52.916;6.542;2023-11-19T03:54:59;54.60;;;10.80;;
57107;SDS011;42987;52.916;6.542;2023-11-19T03:57:26;54.53;;;10.40;;
57107;SDS011;42987;52.916;6.542;2023-11-19T03:59:53;49.60;;;10.82;;
57107;SDS011;42987;52.916;6.542;2023-11-19T04:02:20;53.92;;;10.23;;
57107;SDS011;42987;52.916;6.542;2023-11-19T04:04:46;45.05;;;9.90;;
57107;SDS011;42987;52.916;6.542;2023-11-19T04:07:13;45.35;;;10.05;;
57107;SDS011;42987;52.916;6.542;2023-11-19T04:09:39;46.55;;;10.20;;
57107;SDS011;42987;52.916;6.542;2023-11-19T04:12:04;52.92;;;10.80;;
57107;SDS011;42987;52.916;6.542;2023-11-19T04:14:30;48.60;;;9.95;;
57107;SDS011;42987;52.916;6.542;2023-11-19T04:16:56;48.10;;;9.90;;
57107;SDS011;42987;52.916;6.542;2023-11-19T04:19:22;52.65;;;10.48;;
57107;SDS011;42987;52.916;6.542;2023-11-19T04:21:48;54.85;;;11.15;;
57107;SDS011;42987;52.916;6.542;2023-11-19T04:24:13;54.72;;;10.68;;
57107;SDS011;42987;52.916;6.542;2023-11-19T04:26:43;48.53;;;10.70;;
57107;SDS011;42987;52.916;6.542;2023-11-19T04:29:13;51.22;;;9.60;;
57107;SDS011;42987;52.916;6.542;2023-11-19T04:31:40;53.63;;;10.65;;
57107;SDS011;42987;52.916;6.542;2023-11-19T04:34:06;43.40;;;9.68;;
57107;SDS011;42987;52.916;6.542;2023-11-19T04:36:32;47.10;;;9.93;;
57107;SDS011;42987;52.916;6.542;2023-11-19T04:39:02;45.20;;;10.00;;
57107;SDS011;42987;52.916;6.542;2023-11-19T04:41:30;46.55;;;10.30;;
57107;SDS011;42987;52.916;6.542;2023-11-19T04:43:56;44.90;;;9.98;;
57107;SDS011;42987;52.916;6.542;2023-11-19T04:46:22;51.60;;;10.32;;
57107;SDS011;42987;52.916;6.542;2023-11-19T04:48:49;46.70;;;9.32;;
57107;SDS011;42987;52.916;6.542;2023-11-19T04:51:15;55.03;;;10.52;;
57107;SDS011;42987;52.916;6.542;2023-11-19T04:53:41;55.78;;;11.40;;
57107;SDS011;42987;52.916;6.542;2023-11-19T04:56:10;57.00;;;9.70;;
57107;SDS011;42987;52.916;6.542;2023-11-19T04:58:36;59.92;;;10.32;;
57107;SDS011;42987;52.916;6.542;2023-11-19T05:01:06;45.95;;;9.88;;
57107;SDS011;42987;52.916;6.542;2023-11-19T05:03:38;45.33;;;9.95;;
57107;SDS011;42987;52.916;6.542;2023-11-19T05:06:05;51.38;;;10.48;;
57107;SDS011;42987;52.916;6.542;2023-11-19T05:08:31;51.15;;;10.70;;
57107;SDS011;42987;52.916;6.542;2023-11-19T05:10:57;52.85;;;9.73;;
57107;SDS011;42987;52.916;6.542;2023-11-19T05:13:24;58.17;;;11.43;;
57107;SDS011;42987;52.916;6.542;2023-11-19T05:15:50;45.83;;;10.82;;
57107;SDS011;42987;52.916;6.542;2023-11-19T05:18:15;59.83;;;12.20;;
57107;SDS011;42987;52.916;6.542;2023-11-19T05:20:41;46.50;;;10.25;;
57107;SDS011;42987;52.916;6.542;2023-11-19T05:23:07;42.78;;;8.95;;
57107;SDS011;42987;52.916;6.542;2023-11-19T05:25:33;46.10;;;10.50;;
57107;SDS011;42987;52.916;6.542;2023-11-19T05:27:59;56.45;;;10.30;;
57107;SDS011;42987;52.916;6.542;2023-11-19T05:30:24;52.03;;;9.65;;
57107;SDS011;42987;52.916;6.542;2023-11-19T05:32:50;45.67;;;10.45;;
57107;SDS011;42987;52.916;6.542;2023-11-19T05:35:16;54.63;;;9.95;;
57107;SDS011;42987;52.916;6.542;2023-11-19T05:37:42;42.95;;;9.57;;
57107;SDS011;42987;52.916;6.542;2023-11-19T05:40:08;54.80;;;10.98;;
57107;SDS011;42987;52.916;6.542;2023-11-19T05:42:39;57.40;;;10.98;;
57107;SDS011;42987;52.916;6.542;2023-11-19T05:45:06;57.60;;;11.13;;
57107;SDS011;42987;52.916;6.542;2023-11-19T05:47:33;51.33;;;11.13;;
57107;SDS011;42987;52.916;6.542;2023-11-19T05:49:58;52.65;;;9.73;;
57107;SDS011;42987;52.916;6.542;2023-11-19T05:52:24;45.35;;;9.75;;
57107;SDS011;42987;52.916;6.542;2023-11-19T05:54:50;48.58;;;9.82;;
57107;SDS011;42987;52.916;6.542;2023-11-19T05:57:19;46.53;;;9.63;;
57107;SDS011;42987;52.916;6.542;2023-11-19T05:59:50;48.85;;;10.00;;
57107;SDS011;42987;52.916;6.542;2023-11-19T06:02:17;47.67;;;10.18;;
57107;SDS011;42987;52.916;6.542;2023-11-19T06:04:42;47.75;;;10.00;;
57107;SDS011;42987;52.916;6.542;2023-11-19T06:07:09;52.53;;;9.70;;
57107;SDS011;42987;52.916;6.542;2023-11-19T06:09:35;50.85;;;9.85;;
57107;SDS011;42987;52.916;6.542;2023-11-19T06:12:01;48.75;;;9.55;;
57107;SDS011;42987;52.916;6.542;2023-11-19T06:14:27;49.53;;;10.57;;
57107;SDS011;42987;52.916;6.542;2023-11-19T06:16:53;43.28;;;9.77;;
57107;SDS011;42987;52.916;6.542;2023-11-19T06:19:19;46.40;;;10.52;;
57107;SDS011;42987;52.916;6.542;2023-11-19T06:21:44;46.08;;;9.50;;
57107;SDS011;42987;52.916;6.542;2023-11-19T06:24:10;46.13;;;10.07;;
57107;SDS011;42987;52.916;6.542;2023-11-19T06:26:36;49.60;;;10.60;;
57107;SDS011;42987;52.916;6.542;2023-11-19T06:29:02;46.13;;;9.88;;
57107;SDS011;42987;52.916;6.542;2023-11-19T06:31:27;43.42;;;9.90;;
57107;SDS011;42987;52.916;6.542;2023-11-19T06:33:53;48.25;;;10.05;;
57107;SDS011;42987;52.916;6.542;2023-11-19T06:36:19;44.78;;;9.43;;
57107;SDS011;42987;52.916;6.542;2023-11-19T06:38:44;47.05;;;9.35;;
57107;SDS011;42987;52.916;6.542;2023-11-19T06:41:10;46.10;;;10.02;;
57107;SDS011;42987;52.916;6.542;2023-11-19T06:43:36;43.90;;;10.05;;
57107;SDS011;42987;52.916;6.542;2023-11-19T06:46:02;46.75;;;9.50;;
57107;SDS011;42987;52.916;6.542;2023-11-19T06:48:31;50.55;;;9.50;;
57107;SDS011;42987;52.916;6.542;2023-11-19T06:50:57;48.25;;;10.05;;
57107;SDS011;42987;52.916;6.542;2023-11-19T06:53:24;46.15;;;9.45;;
57107;SDS011;42987;52.916;6.542;2023-11-19T06:55:50;48.33;;;9.27;;
57107;SDS011;42987;52.916;6.542;2023-11-19T06:58:15;44.33;;;10.32;;
57107;SDS011;42987;52.916;6.542;2023-11-19T07:00:43;43.47;;;9.88;;
57107;SDS011;42987;52.916;6.542;2023-11-19T07:03:09;40.63;;;9.27;;
57107;SDS011;42987;52.916;6.542;2023-11-19T07:05:38;47.83;;;10.80;;
57107;SDS011;42987;52.916;6.542;2023-11-19T07:08:05;45.72;;;10.00;;
57107;SDS011;42987;52.916;6.542;2023-11-19T07:10:32;44.35;;;9.45;;
57107;SDS011;42987;52.916;6.542;2023-11-19T07:12:58;41.00;;;9.00;;
57107;SDS011;42987;52.916;6.542;2023-11-19T07:15:25;43.13;;;9.35;;
57107;SDS011;42987;52.916;6.542;2023-11-19T07:17:51;46.55;;;9.43;;
57107;SDS011;42987;52.916;6.542;2023-11-19T07:20:19;43.10;;;8.82;;
57107;SDS011;42987;52.916;6.542;2023-11-19T07:22:45;49.15;;;9.80;;
57107;SDS011;42987;52.916;6.542;2023-11-19T07:25:12;37.50;;;8.57;;
57107;SDS011;42987;52.916;6.542;2023-11-19T07:27:38;49.95;;;9.70;;
57107;SDS011;42987;52.916;6.542;2023-11-19T07:30:05;40.53;;;9.43;;
57107;SDS011;42987;52.916;6.542;2023-11-19T07:32:32;43.33;;;8.93;;
57107;SDS011;42987;52.916;6.542;2023-11-19T07:34:58;46.90;;;9.48;;
57107;SDS011;42987;52.916;6.542;2023-11-19T07:37:24;45.78;;;8.45;;
57107;SDS011;42987;52.916;6.542;2023-11-19T07:39:50;42.03;;;9.27;;
57107;SDS011;42987;52.916;6.542;2023-11-19T07:42:17;38.28;;;7.88;;
57107;SDS011;42987;52.916;6.542;2023-11-19T07:44:43;46.38;;;9.10;;
57107;SDS011;42987;52.916;6.542;2023-11-19T07:47:09;48.08;;;10.60;;
57107;SDS011;42987;52.916;6.542;2023-11-19T07:49:35;46.97;;;10.10;;
57107;SDS011;42987;52.916;6.542;2023-11-19T07:52:01;41.00;;;8.32;;
57107;SDS011;42987;52.916;6.542;2023-11-19T07:54:28;48.97;;;9.57;;
57107;SDS011;42987;52.916;6.542;2023-11-19T07:56:53;49.88;;;10.38;;
57107;SDS011;42987;52.916;6.542;2023-11-19T07:59:20;45.08;;;9.50;;
57107;SDS011;42987;52.916;6.542;2023-11-19T08:01:46;51.80;;;10.95;;
57107;SDS011;42987;52.916;6.542;2023-11-19T08:04:12;43.58;;;9.55;;
57107;SDS011;42987;52.916;6.542;2023-11-19T08:06:38;41.05;;;8.73;;
57107;SDS011;42987;52.916;6.542;2023-11-19T08:09:03;47.85;;;9.38;;
57107;SDS011;42987;52.916;6.542;2023-11-19T08:11:30;40.00;;;9.05;;
57107;SDS011;42987;52.916;6.542;2023-11-19T08:13:56;44.72;;;8.85;;
57107;SDS011;42987;52.916;6.542;2023-11-19T08:16:22;42.20;;;9.60;;
57107;SDS011;42987;52.916;6.542;2023-11-19T08:18:47;45.95;;;10.20;;
57107;SDS011;42987;52.916;6.542;2023-11-19T08:21:13;44.50;;;10.45;;
57107;SDS011;42987;52.916;6.542;2023-11-19T08:23:40;44.40;;;10.00;;
57107;SDS011;42987;52.916;6.542;2023-11-19T08:26:05;44.55;;;9.45;;
57107;SDS011;42987;52.916;6.542;2023-11-19T08:28:31;43.85;;;9.07;;
57107;SDS011;42987;52.916;6.542;2023-11-19T08:30:59;43.55;;;9.40;;
57107;SDS011;42987;52.916;6.542;2023-11-19T08:33:26;44.97;;;9.82;;
57107;SDS011;42987;52.916;6.542;2023-11-19T08:35:52;44.90;;;9.70;;
57107;SDS011;42987;52.916;6.542;2023-11-19T08:38:18;40.05;;;8.45;;
57107;SDS011;42987;52.916;6.542;2023-11-19T08:40:43;38.83;;;8.23;;
57107;SDS011;42987;52.916;6.542;2023-11-19T08:43:09;44.75;;;9.48;;
57107;SDS011;42987;52.916;6.542;2023-11-19T08:45:35;44.15;;;9.50;;
57107;SDS011;42987;52.916;6.542;2023-11-19T08:48:01;46.35;;;9.45;;
57107;SDS011;42987;52.916;6.542;2023-11-19T08:50:27;44.75;;;9.95;;
57107;SDS011;42987;52.916;6.542;2023-11-19T08:52:53;52.72;;;9.38;;
57107;SDS011;42987;52.916;6.542;2023-11-19T08:55:18;50.45;;;10.02;;
57107;SDS011;42987;52.916;6.542;2023-11-19T08:57:44;44.33;;;9.52;;
57107;SDS011;42987;52.916;6.542;2023-11-19T09:00:10;51.50;;;9.95;;
57107;SDS011;42987;52.916;6.542;2023-11-19T09:02:39;40.75;;;8.38;;
57107;SDS011;42987;52.916;6.542;2023-11-19T09:05:05;42.63;;;8.73;;
57107;SDS011;42987;52.916;6.542;2023-11-19T09:07:34;46.53;;;9.73;;
57107;SDS011;42987;52.916;6.542;2023-11-19T09:10:00;50.03;;;9.55;;
57107;SDS011;42987;52.916;6.542;2023-11-19T09:12:26;52.85;;;10.15;;
57107;SDS011;42987;52.916;6.542;2023-11-19T09:14:52;46.05;;;9.50;;
57107;SDS011;42987;52.916;6.542;2023-11-19T09:17:18;46.17;;;9.43;;
57107;SDS011;42987;52.916;6.542;2023-11-19T09:19:44;41.38;;;8.68;;
57107;SDS011;42987;52.916;6.542;2023-11-19T09:22:10;35.63;;;8.82;;
57107;SDS011;42987;52.916;6.542;2023-11-19T09:24:35;45.70;;;9.32;;
57107;SDS011;42987;52.916;6.542;2023-11-19T09:27:01;41.45;;;9.48;;
57107;SDS011;42987;52.916;6.542;2023-11-19T09:29:27;46.05;;;8.80;;
57107;SDS011;42987;52.916;6.542;2023-11-19T09:31:52;55.40;;;10.48;;
57107;SDS011;42987;52.916;6.542;2023-11-19T09:34:18;40.78;;;8.52;;
57107;SDS011;42987;52.916;6.542;2023-11-19T09:36:45;40.15;;;8.35;;
57107;SDS011;42987;52.916;6.542;2023-11-19T09:39:11;41.08;;;9.20;;
57107;SDS011;42987;52.916;6.542;2023-11-19T09:41:40;46.60;;;9.50;;
57107;SDS011;42987;52.916;6.542;2023-11-19T09:44:07;35.90;;;8.63;;
57107;SDS011;42987;52.916;6.542;2023-11-19T09:46:34;49.03;;;9.63;;
57107;SDS011;42987;52.916;6.542;2023-11-19T09:49:01;32.38;;;7.93;;
57107;SDS011;42987;52.916;6.542;2023-11-19T09:51:29;35.75;;;8.23;;
57107;SDS011;42987;52.916;6.542;2023-11-19T09:53:55;42.15;;;9.13;;
57107;SDS011;42987;52.916;6.542;2023-11-19T09:56:24;37.35;;;8.55;;
57107;SDS011;42987;52.916;6.542;2023-11-19T09:58:50;42.57;;;9.50;;
57107;SDS011;42987;52.916;6.542;2023-11-19T10:01:16;37.92;;;8.40;;
57107;SDS011;42987;52.916;6.542;2023-11-19T10:03:42;45.45;;;9.43;;
57107;SDS011;42987;52.916;6.542;2023-11-19T10:06:11;41.85;;;8.45;;
57107;SDS011;42987;52.916;6.542;2023-11-19T10:08:39;40.60;;;8.60;;
57107;SDS011;42987;52.916;6.542;2023-11-19T10:11:06;44.60;;;10.05;;
57107;SDS011;42987;52.916;6.542;2023-11-19T10:13:34;45.63;;;8.35;;
57107;SDS011;42987;52.916;6.542;2023-11-19T10:16:09;48.22;;;9.13;;
57107;SDS011;42987;52.916;6.542;2023-11-19T10:18:38;40.53;;;8.32;;
57107;SDS011;42987;52.916;6.542;2023-11-19T10:21:11;43.03;;;9.52;;
57107;SDS011;42987;52.916;6.542;2023-11-19T10:23:51;45.70;;;7.80;;
57107;SDS011;42987;52.916;6.542;2023-11-19T10:26:19;41.78;;;8.98;;
57107;SDS011;42987;52.916;6.542;2023-11-19T10:28:46;39.53;;;8.63;;
57107;SDS011;42987;52.916;6.542;2023-11-19T10:31:15;44.42;;;8.52;;
57107;SDS011;42987;52.916;6.542;2023-11-19T10:33:42;50.85;;;9.45;;
57107;SDS011;42987;52.916;6.542;2023-11-19T10:36:10;42.13;;;8.63;;
57107;SDS011;42987;52.916;6.542;2023-11-19T10:38:39;41.67;;;8.77;;
57107;SDS011;42987;52.916;6.542;2023-11-19T10:41:06;42.40;;;8.60;;
57107;SDS011;42987;52.916;6.542;2023-11-19T10:43:42;44.22;;;8.63;;
57107;SDS011;42987;52.916;6.542;2023-11-19T10:46:13;48.70;;;8.98;;
57107;SDS011;42987;52.916;6.542;2023-11-19T10:48:39;41.67;;;8.95;;
57107;SDS011;42987;52.916;6.542;2023-11-19T10:51:06;38.72;;;8.07;;
57107;SDS011;42987;52.916;6.542;2023-11-19T10:53:37;34.63;;;9.10;;
57107;SDS011;42987;52.916;6.542;2023-11-19T10:56:06;37.45;;;8.55;;
57107;SDS011;42987;52.916;6.542;2023-11-19T10:58:36;44.75;;;8.82;;
57107;SDS011;42987;52.916;6.542;2023-11-19T11:01:13;42.28;;;9.00;;
57107;SDS011;42987;52.916;6.542;2023-11-19T11:03:45;40.25;;;8.00;;
57107;SDS011;42987;52.916;6.542;2023-11-19T11:06:12;50.42;;;9.95;;
57107;SDS011;42987;52.916;6.542;2023-11-19T11:08:39;45.05;;;9.63;;
57107;SDS011;42987;52.916;6.542;2023-11-19T11:11:05;50.85;;;8.77;;
57107;SDS011;42987;52.916;6.542;2023-11-19T11:13:33;43.17;;;8.25;;
57107;SDS011;42987;52.916;6.542;2023-11-19T11:16:01;34.10;;;7.40;;
57107;SDS011;42987;52.916;6.542;2023-11-19T11:18:29;50.67;;;8.77;;
57107;SDS011;42987;52.916;6.542;2023-11-19T11:29:44;49.75;;;9.52;;
57107;SDS011;42987;52.916;6.542;2023-11-19T11:37:49;35.90;;;8.02;;
57107;SDS011;42987;52.916;6.542;2023-11-19T11:40:24;46.35;;;8.80;;
57107;SDS011;42987;52.916;6.542;2023-11-19T11:42:51;47.22;;;8.90;;
57107;SDS011;42987;52.916;6.542;2023-11-19T11:45:18;47.97;;;8.90;;
57107;SDS011;42987;52.916;6.542;2023-11-19T11:48:19;49.90;;;9.98;;
57107;SDS011;42987;52.916;6.542;2023-11-19T11:50:47;50.03;;;9.60;;
57107;SDS011;42987;52.916;6.542;2023-11-19T11:53:21;45.65;;;9.57;;
57107;SDS011;42987;52.916;6.542;2023-11-19T11:58:18;58.20;;;9.35;;
57107;SDS011;42987;52.916;6.542;2023-11-19T12:00:50;45.13;;;9.52;;
57107;SDS011;42987;52.916;6.542;2023-11-19T12:03:19;45.70;;;9.70;;
57107;SDS011;42987;52.916;6.542;2023-11-19T12:05:50;46.22;;;8.70;;
57107;SDS011;42987;52.916;6.542;2023-11-19T12:08:19;51.03;;;9.02;;
57107;SDS011;42987;52.916;6.542;2023-11-19T12:10:54;45.78;;;9.07;;
57107;SDS011;42987;52.916;6.542;2023-11-19T12:13:28;52.75;;;9.10;;
57107;SDS011;42987;52.916;6.542;2023-11-19T12:16:15;50.75;;;8.38;;
57107;SDS011;42987;52.916;6.542;2023-11-19T12:18:41;44.17;;;8.60;;
57107;SDS011;42987;52.916;6.542;2023-11-19T12:21:07;50.08;;;9.43;;
57107;SDS011;42987;52.916;6.542;2023-11-19T12:23:34;46.72;;;9.02;;
57107;SDS011;42987;52.916;6.542;2023-11-19T12:26:01;47.72;;;9.00;;
57107;SDS011;42987;52.916;6.542;2023-11-19T12:28:26;45.47;;;8.45;;
57107;SDS011;42987;52.916;6.542;2023-11-19T12:30:52;43.92;;;8.13;;
57107;SDS011;42987;52.916;6.542;2023-11-19T12:33:18;41.80;;;8.75;;
57107;SDS011;42987;52.916;6.542;2023-11-19T12:35:45;41.92;;;8.43;;
57107;SDS011;42987;52.916;6.542;2023-11-19T12:41:07;44.83;;;8.27;;
57107;SDS011;42987;52.916;6.542;2023-11-19T12:43:36;42.42;;;7.18;;
57107;SDS011;42987;52.916;6.542;2023-11-19T12:46:21;42.70;;;7.90;;
57107;SDS011;42987;52.916;6.542;2023-11-19T12:48:48;46.67;;;8.13;;
57107;SDS011;42987;52.916;6.542;2023-11-19T12:51:14;41.63;;;7.90;;
57107;SDS011;42987;52.916;6.542;2023-11-19T12:53:47;38.35;;;7.32;;
57107;SDS011;42987;52.916;6.542;2023-11-19T12:56:20;44.03;;;8.25;;
57107;SDS011;42987;52.916;6.542;2023-11-19T12:58:46;43.00;;;8.82;;
57107;SDS011;42987;52.916;6.542;2023-11-19T13:01:19;33.28;;;7.50;;
57107;SDS011;42987;52.916;6.542;2023-11-19T13:03:46;38.97;;;8.48;;
57107;SDS011;42987;52.916;6.542;2023-11-19T13:06:13;45.03;;;8.07;;
57107;SDS011;42987;52.916;6.542;2023-11-19T13:08:44;35.90;;;8.80;;
57107;SDS011;42987;52.916;6.542;2023-11-19T13:11:29;36.00;;;7.60;;
57107;SDS011;42987;52.916;6.542;2023-11-19T13:13:57;40.08;;;8.18;;
57107;SDS011;42987;52.916;6.542;2023-11-19T13:16:29;32.70;;;7.68;;
57107;SDS011;42987;52.916;6.542;2023-11-19T13:18:56;38.50;;;7.78;;
57107;SDS011;42987;52.916;6.542;2023-11-19T13:21:28;38.85;;;7.72;;
57107;SDS011;42987;52.916;6.542;2023-11-19T13:23:55;42.78;;;7.93;;
57107;SDS011;42987;52.916;6.542;2023-11-19T13:26:20;34.05;;;7.28;;
57107;SDS011;42987;52.916;6.542;2023-11-19T13:28:49;47.83;;;7.97;;
57107;SDS011;42987;52.916;6.542;2023-11-19T13:31:15;55.72;;;8.70;;
57107;SDS011;42987;52.916;6.542;2023-11-19T13:33:41;45.45;;;7.78;;
57107;SDS011;42987;52.916;6.542;2023-11-19T13:36:07;38.92;;;7.53;;
57107;SDS011;42987;52.916;6.542;2023-11-19T13:38:34;45.90;;;8.48;;
57107;SDS011;42987;52.916;6.542;2023-11-19T13:41:01;47.28;;;8.85;;
57107;SDS011;42987;52.916;6.542;2023-11-19T13:43:30;34.95;;;7.32;;
57107;SDS011;42987;52.916;6.542;2023-11-19T13:46:00;42.85;;;8.70;;
57107;SDS011;42987;52.916;6.542;2023-11-19T13:48:26;32.60;;;6.90;;
57107;SDS011;42987;52.916;6.542;2023-11-19T13:50:54;31.65;;;7.70;;
57107;SDS011;42987;52.916;6.542;2023-11-19T13:53:23;42.80;;;7.53;;
57107;SDS011;42987;52.916;6.542;2023-11-19T13:55:49;33.65;;;8.05;;
57107;SDS011;42987;52.916;6.542;2023-11-19T13:58:15;35.60;;;6.93;;
57107;SDS011;42987;52.916;6.542;2023-11-19T14:00:41;37.40;;;7.43;;
57107;SDS011;42987;52.916;6.542;2023-11-19T14:03:08;35.67;;;7.35;;
57107;SDS011;42987;52.916;6.542;2023-11-19T14:05:38;36.22;;;7.93;;
57107;SDS011;42987;52.916;6.542;2023-11-19T14:08:04;38.80;;;7.78;;
57107;SDS011;42987;52.916;6.542;2023-11-19T14:10:39;35.15;;;6.47;;
57107;SDS011;42987;52.916;6.542;2023-11-19T14:13:08;36.95;;;7.75;;
57107;SDS011;42987;52.916;6.542;2023-11-19T14:15:34;36.50;;;7.15;;
57107;SDS011;42987;52.916;6.542;2023-11-19T14:18:00;33.40;;;7.05;;
57107;SDS011;42987;52.916;6.542;2023-11-19T14:20:27;34.30;;;6.95;;
57107;SDS011;42987;52.916;6.542;2023-11-19T14:22:52;34.72;;;7.03;;
57107;SDS011;42987;52.916;6.542;2023-11-19T14:25:18;33.55;;;6.55;;
57107;SDS011;42987;52.916;6.542;2023-11-19T14:27:44;37.00;;;7.40;;
57107;SDS011;42987;52.916;6.542;2023-11-19T14:30:14;31.33;;;6.43;;
57107;SDS011;42987;52.916;6.542;2023-11-19T14:32:41;32.75;;;7.10;;
57107;SDS011;42987;52.916;6.542;2023-11-19T14:35:12;35.08;;;8.50;;
57107;SDS011;42987;52.916;6.542;2023-11-19T14:37:37;34.03;;;7.13;;
57107;SDS011;42987;52.916;6.542;2023-11-19T14:40:03;35.13;;;7.75;;
57107;SDS011;42987;52.916;6.542;2023-11-19T14:42:31;33.17;;;6.78;;
57107;SDS011;42987;52.916;6.542;2023-11-19T14:44:57;43.70;;;7.78;;
57107;SDS011;42987;52.916;6.542;2023-11-19T14:47:23;35.15;;;7.57;;
57107;SDS011;42987;52.916;6.542;2023-11-19T14:49:49;30.73;;;6.47;;
57107;SDS011;42987;52.916;6.542;2023-11-19T14:52:15;41.83;;;7.60;;